sensor_id;sensor_type;location;lat;lon;timestamp;P1;durP1;ratioP1;P2;durP2;ratioP2
3004;SDS011;1512;51.486;6.610;2023-07-29T00:01:27;3.40;;;2.53;;
3004;SDS011;1512;51.486;6.610;2023-07-29T00:05:38;3.23;;;2.93;;
3004;SDS011;1512;51.486;6.610;2023-07-29T00:09:48;3.43;;;2.97;;
3004;SDS011;1512;51.486;6.610;2023-07-29T00:13:56;4.13;;;3.43;;
3004;SDS011;1512;51.486;6.610;2023-07-29T00:18:05;4.00;;;3.17;;
3004;SDS011;1512;51.486;6.610;2023-07-29T00:22:13;3.50;;;3.20;;
3004;SDS011;1512;51.486;6.610;2023-07-29T00:26:22;3.67;;;2.90;;
3004;SDS011;1512;51.486;6.610;2023-07-29T00:30:32;4.00;;;3.23;;
3004;SDS011;1512;51.486;6.610;2023-07-29T00:34:41;5.87;;;5.37;;
3004;SDS011;1512;51.486;6.610;2023-07-29T00:38:50;3.70;;;3.40;;
3004;SDS011;1512;51.486;6.610;2023-07-29T00:42:59;3.60;;;3.30;;
3004;SDS011;1512;51.486;6.610;2023-07-29T00:47:08;3.70;;;3.40;;
3004;SDS011;1512;51.486;6.610;2023-07-29T00:51:18;3.23;;;2.93;;
3004;SDS011;1512;51.486;6.610;2023-07-29T00:55:27;3.63;;;3.30;;
3004;SDS011;1512;51.486;6.610;2023-07-29T00:59:36;4.30;;;3.90;;
3004;SDS011;1512;51.486;6.610;2023-07-29T01:03:45;2.83;;;2.63;;
3004;SDS011;1512;51.486;6.610;2023-07-29T01:07:58;5.83;;;3.90;;
3004;SDS011;1512;51.486;6.610;2023-07-29T01:12:27;3.57;;;3.27;;
3004;SDS011;1512;51.486;6.610;2023-07-29T01:16:55;3.73;;;3.43;;
3004;SDS011;1512;51.486;6.610;2023-07-29T01:21:07;4.10;;;3.37;;
3004;SDS011;1512;51.486;6.610;2023-07-29T01:25:19;5.27;;;3.10;;
3004;SDS011;1512;51.486;6.610;2023-07-29T01:29:27;3.97;;;3.57;;
3004;SDS011;1512;51.486;6.610;2023-07-29T01:33:42;4.67;;;3.37;;
3004;SDS011;1512;51.486;6.610;2023-07-29T01:37:49;3.90;;;3.50;;
3004;SDS011;1512;51.486;6.610;2023-07-29T01:42:09;3.27;;;2.97;;
3004;SDS011;1512;51.486;6.610;2023-07-29T01:46:18;2.87;;;2.60;;
3004;SDS011;1512;51.486;6.610;2023-07-29T01:50:28;3.50;;;3.20;;
3004;SDS011;1512;51.486;6.610;2023-07-29T01:54:36;3.90;;;3.47;;
3004;SDS011;1512;51.486;6.610;2023-07-29T01:58:45;4.17;;;3.87;;
3004;SDS011;1512;51.486;6.610;2023-07-29T02:02:53;4.50;;;3.73;;
3004;SDS011;1512;51.486;6.610;2023-07-29T02:07:02;3.40;;;3.10;;
3004;SDS011;1512;51.486;6.610;2023-07-29T02:11:11;23.93;;;4.60;;
3004;SDS011;1512;51.486;6.610;2023-07-29T02:15:20;3.47;;;3.17;;
3004;SDS011;1512;51.486;6.610;2023-07-29T02:19:28;4.30;;;3.70;;
3004;SDS011;1512;51.486;6.610;2023-07-29T02:23:37;4.13;;;3.73;;
3004;SDS011;1512;51.486;6.610;2023-07-29T02:27:46;3.87;;;3.47;;
3004;SDS011;1512;51.486;6.610;2023-07-29T02:31:55;4.33;;;3.60;;
3004;SDS011;1512;51.486;6.610;2023-07-29T02:36:03;3.57;;;3.23;;
3004;SDS011;1512;51.486;6.610;2023-07-29T02:40:12;3.23;;;2.93;;
3004;SDS011;1512;51.486;6.610;2023-07-29T02:44:20;5.50;;;4.00;;
3004;SDS011;1512;51.486;6.610;2023-07-29T02:48:29;4.47;;;4.00;;
3004;SDS011;1512;51.486;6.610;2023-07-29T02:52:38;8.00;;;4.47;;
3004;SDS011;1512;51.486;6.610;2023-07-29T02:56:47;3.83;;;3.53;;
3004;SDS011;1512;51.486;6.610;2023-07-29T03:01:04;4.00;;;3.60;;
3004;SDS011;1512;51.486;6.610;2023-07-29T03:05:10;5.57;;;3.93;;
3004;SDS011;1512;51.486;6.610;2023-07-29T03:09:19;4.30;;;3.60;;
3004;SDS011;1512;51.486;6.610;2023-07-29T03:13:28;4.60;;;4.20;;
3004;SDS011;1512;51.486;6.610;2023-07-29T03:17:36;4.40;;;4.00;;
3004;SDS011;1512;51.486;6.610;2023-07-29T03:21:45;7.10;;;5.23;;
3004;SDS011;1512;51.486;6.610;2023-07-29T03:25:57;4.43;;;4.00;;
3004;SDS011;1512;51.486;6.610;2023-07-29T03:30:07;5.10;;;4.50;;
3004;SDS011;1512;51.486;6.610;2023-07-29T03:34:16;4.40;;;4.00;;
3004;SDS011;1512;51.486;6.610;2023-07-29T03:38:25;3.80;;;3.40;;
3004;SDS011;1512;51.486;6.610;2023-07-29T03:42:35;3.77;;;3.40;;
3004;SDS011;1512;51.486;6.610;2023-07-29T03:46:44;5.53;;;3.87;;
3004;SDS011;1512;51.486;6.610;2023-07-29T03:50:53;4.27;;;3.70;;
3004;SDS011;1512;51.486;6.610;2023-07-29T03:55:02;5.77;;;3.63;;
3004;SDS011;1512;51.486;6.610;2023-07-29T03:59:12;4.63;;;3.63;;
3004;SDS011;1512;51.486;6.610;2023-07-29T04:03:20;6.67;;;4.33;;
3004;SDS011;1512;51.486;6.610;2023-07-29T04:07:29;7.40;;;4.00;;
3004;SDS011;1512;51.486;6.610;2023-07-29T04:11:38;10.43;;;5.13;;
3004;SDS011;1512;51.486;6.610;2023-07-29T04:15:47;4.83;;;4.23;;
3004;SDS011;1512;51.486;6.610;2023-07-29T04:19:56;6.60;;;4.97;;
3004;SDS011;1512;51.486;6.610;2023-07-29T04:24:04;5.93;;;4.67;;
3004;SDS011;1512;51.486;6.610;2023-07-29T04:28:13;7.30;;;5.03;;
3004;SDS011;1512;51.486;6.610;2023-07-29T04:32:21;6.00;;;4.77;;
3004;SDS011;1512;51.486;6.610;2023-07-29T04:36:30;6.13;;;4.10;;
3004;SDS011;1512;51.486;6.610;2023-07-29T04:40:39;5.77;;;3.90;;
3004;SDS011;1512;51.486;6.610;2023-07-29T04:44:48;4.30;;;3.62;;
3004;SDS011;1512;51.486;6.610;2023-07-29T04:48:57;3.60;;;3.13;;
3004;SDS011;1512;51.486;6.610;2023-07-29T04:53:05;6.53;;;4.23;;
3004;SDS011;1512;51.486;6.610;2023-07-29T04:57:14;5.47;;;4.97;;
3004;SDS011;1512;51.486;6.610;2023-07-29T05:01:23;8.57;;;4.97;;
3004;SDS011;1512;51.486;6.610;2023-07-29T05:05:32;5.43;;;4.30;;
3004;SDS011;1512;51.486;6.610;2023-07-29T05:09:41;6.50;;;6.00;;
3004;SDS011;1512;51.486;6.610;2023-07-29T05:13:49;5.60;;;3.80;;
3004;SDS011;1512;51.486;6.610;2023-07-29T05:17:58;7.60;;;4.10;;
3004;SDS011;1512;51.486;6.610;2023-07-29T05:22:06;4.07;;;3.67;;
3004;SDS011;1512;51.486;6.610;2023-07-29T05:26:17;7.50;;;4.10;;
3004;SDS011;1512;51.486;6.610;2023-07-29T05:30:25;5.70;;;4.70;;
3004;SDS011;1512;51.486;6.610;2023-07-29T05:34:35;6.60;;;5.00;;
3004;SDS011;1512;51.486;6.610;2023-07-29T05:38:44;7.03;;;4.37;;
3004;SDS011;1512;51.486;6.610;2023-07-29T05:42:53;5.40;;;3.73;;
3004;SDS011;1512;51.486;6.610;2023-07-29T05:47:02;6.10;;;4.33;;
3004;SDS011;1512;51.486;6.610;2023-07-29T05:51:10;4.73;;;3.93;;
3004;SDS011;1512;51.486;6.610;2023-07-29T05:55:19;3.93;;;3.53;;
3004;SDS011;1512;51.486;6.610;2023-07-29T05:59:28;5.53;;;3.70;;
3004;SDS011;1512;51.486;6.610;2023-07-29T06:03:36;5.73;;;3.93;;
3004;SDS011;1512;51.486;6.610;2023-07-29T06:07:45;4.80;;;4.03;;
3004;SDS011;1512;51.486;6.610;2023-07-29T06:16:16;4.47;;;3.73;;
3004;SDS011;1512;51.486;6.610;2023-07-29T06:20:24;6.60;;;3.90;;
3004;SDS011;1512;51.486;6.610;2023-07-29T06:24:33;5.90;;;4.40;;
3004;SDS011;1512;51.486;6.610;2023-07-29T06:28:41;4.53;;;3.37;;
3004;SDS011;1512;51.486;6.610;2023-07-29T06:32:50;5.17;;;3.80;;
3004;SDS011;1512;51.486;6.610;2023-07-29T06:36:59;4.30;;;3.57;;
3004;SDS011;1512;51.486;6.610;2023-07-29T06:41:07;4.37;;;3.70;;
3004;SDS011;1512;51.486;6.610;2023-07-29T06:45:18;3.53;;;3.10;;
3004;SDS011;1512;51.486;6.610;2023-07-29T06:49:26;3.83;;;3.13;;
3004;SDS011;1512;51.486;6.610;2023-07-29T06:53:35;3.50;;;3.13;;
3004;SDS011;1512;51.486;6.610;2023-07-29T06:57:43;4.00;;;3.30;;
3004;SDS011;1512;51.486;6.610;2023-07-29T07:01:52;3.00;;;2.70;;
3004;SDS011;1512;51.486;6.610;2023-07-29T07:06:01;3.33;;;3.03;;
3004;SDS011;1512;51.486;6.610;2023-07-29T07:10:10;4.63;;;3.60;;
3004;SDS011;1512;51.486;6.610;2023-07-29T07:14:18;3.90;;;3.50;;
3004;SDS011;1512;51.486;6.610;2023-07-29T07:18:27;3.20;;;2.90;;
3004;SDS011;1512;51.486;6.610;2023-07-29T07:22:35;3.20;;;2.83;;
3004;SDS011;1512;51.486;6.610;2023-07-29T07:26:44;3.40;;;3.10;;
3004;SDS011;1512;51.486;6.610;2023-07-29T07:30:53;3.10;;;2.80;;
3004;SDS011;1512;51.486;6.610;2023-07-29T07:35:02;3.23;;;2.93;;
3004;SDS011;1512;51.486;6.610;2023-07-29T07:39:12;2.93;;;2.73;;
3004;SDS011;1512;51.486;6.610;2023-07-29T07:43:21;2.50;;;2.30;;
3004;SDS011;1512;51.486;6.610;2023-07-29T07:47:31;2.70;;;2.43;;
3004;SDS011;1512;51.486;6.610;2023-07-29T07:51:39;3.20;;;2.50;;
3004;SDS011;1512;51.486;6.610;2023-07-29T07:55:48;6.43;;;2.80;;
3004;SDS011;1512;51.486;6.610;2023-07-29T07:59:56;3.17;;;2.90;;
3004;SDS011;1512;51.486;6.610;2023-07-29T08:04:05;2.93;;;2.60;;
3004;SDS011;1512;51.486;6.610;2023-07-29T08:08:15;3.87;;;2.73;;
3004;SDS011;1512;51.486;6.610;2023-07-29T08:12:23;3.90;;;2.70;;
3004;SDS011;1512;51.486;6.610;2023-07-29T08:16:32;4.17;;;2.70;;
3004;SDS011;1512;51.486;6.610;2023-07-29T08:20:49;3.20;;;2.90;;
3004;SDS011;1512;51.486;6.610;2023-07-29T08:25:02;2.43;;;2.23;;
3004;SDS011;1512;51.486;6.610;2023-07-29T08:29:11;2.50;;;1.93;;
3004;SDS011;1512;51.486;6.610;2023-07-29T08:33:19;2.67;;;2.10;;
3004;SDS011;1512;51.486;6.610;2023-07-29T08:37:28;2.53;;;2.33;;
3004;SDS011;1512;51.486;6.610;2023-07-29T08:41:44;1.93;;;1.80;;
3004;SDS011;1512;51.486;6.610;2023-07-29T08:45:49;2.47;;;2.27;;
3004;SDS011;1512;51.486;6.610;2023-07-29T08:50:00;2.60;;;2.40;;
3004;SDS011;1512;51.486;6.610;2023-07-29T08:54:10;2.53;;;2.33;;
3004;SDS011;1512;51.486;6.610;2023-07-29T08:58:19;2.53;;;2.33;;
3004;SDS011;1512;51.486;6.610;2023-07-29T09:02:29;3.10;;;2.33;;
3004;SDS011;1512;51.486;6.610;2023-07-29T09:06:38;5.50;;;2.70;;
3004;SDS011;1512;51.486;6.610;2023-07-29T09:10:47;3.00;;;2.63;;
3004;SDS011;1512;51.486;6.610;2023-07-29T09:14:56;4.07;;;3.27;;
3004;SDS011;1512;51.486;6.610;2023-07-29T09:19:05;3.30;;;3.00;;
3004;SDS011;1512;51.486;6.610;2023-07-29T09:23:14;3.37;;;2.93;;
3004;SDS011;1512;51.486;6.610;2023-07-29T09:27:26;4.73;;;3.20;;
3004;SDS011;1512;51.486;6.610;2023-07-29T09:31:38;3.37;;;3.07;;
3004;SDS011;1512;51.486;6.610;2023-07-29T09:35:47;3.60;;;3.30;;
3004;SDS011;1512;51.486;6.610;2023-07-29T09:39:56;3.30;;;3.00;;
3004;SDS011;1512;51.486;6.610;2023-07-29T09:44:04;3.07;;;2.70;;
3004;SDS011;1512;51.486;6.610;2023-07-29T09:48:14;7.07;;;3.27;;
3004;SDS011;1512;51.486;6.610;2023-07-29T09:52:26;3.10;;;2.83;;
3004;SDS011;1512;51.486;6.610;2023-07-29T09:56:35;4.03;;;2.83;;
3004;SDS011;1512;51.486;6.610;2023-07-29T10:00:46;3.47;;;2.52;;
3004;SDS011;1512;51.486;6.610;2023-07-29T10:04:56;2.93;;;2.57;;
3004;SDS011;1512;51.486;6.610;2023-07-29T10:09:05;2.93;;;2.57;;
3004;SDS011;1512;51.486;6.610;2023-07-29T10:13:15;3.60;;;3.07;;
3004;SDS011;1512;51.486;6.610;2023-07-29T10:17:24;4.13;;;2.87;;
3004;SDS011;1512;51.486;6.610;2023-07-29T10:21:35;3.57;;;2.37;;
3004;SDS011;1512;51.486;6.610;2023-07-29T10:25:47;3.43;;;2.87;;
3004;SDS011;1512;51.486;6.610;2023-07-29T10:29:58;3.20;;;2.53;;
3004;SDS011;1512;51.486;6.610;2023-07-29T10:34:07;3.10;;;2.40;;
3004;SDS011;1512;51.486;6.610;2023-07-29T10:38:17;2.73;;;2.30;;
3004;SDS011;1512;51.486;6.610;2023-07-29T10:42:26;2.53;;;2.33;;
3004;SDS011;1512;51.486;6.610;2023-07-29T10:46:35;2.40;;;2.20;;
3004;SDS011;1512;51.486;6.610;2023-07-29T10:50:44;3.13;;;2.37;;
3004;SDS011;1512;51.486;6.610;2023-07-29T10:54:52;2.47;;;2.23;;
3004;SDS011;1512;51.486;6.610;2023-07-29T11:03:23;3.80;;;2.57;;
3004;SDS011;1512;51.486;6.610;2023-07-29T11:11:53;2.43;;;2.23;;
3004;SDS011;1512;51.486;6.610;2023-07-29T11:16:05;2.70;;;2.43;;
3004;SDS011;1512;51.486;6.610;2023-07-29T11:20:14;4.30;;;2.50;;
3004;SDS011;1512;51.486;6.610;2023-07-29T11:24:24;2.50;;;2.30;;
3004;SDS011;1512;51.486;6.610;2023-07-29T11:28:37;5.63;;;2.67;;
3004;SDS011;1512;51.486;6.610;2023-07-29T11:32:47;2.40;;;2.20;;
3004;SDS011;1512;51.486;6.610;2023-07-29T11:36:56;2.60;;;2.40;;
3004;SDS011;1512;51.486;6.610;2023-07-29T11:41:05;2.60;;;2.40;;
3004;SDS011;1512;51.486;6.610;2023-07-29T11:45:14;2.40;;;2.20;;
3004;SDS011;1512;51.486;6.610;2023-07-29T11:49:24;3.13;;;2.63;;
3004;SDS011;1512;51.486;6.610;2023-07-29T11:53:33;2.77;;;2.40;;
3004;SDS011;1512;51.486;6.610;2023-07-29T11:57:42;3.17;;;2.87;;
3004;SDS011;1512;51.486;6.610;2023-07-29T12:01:51;3.17;;;2.73;;
3004;SDS011;1512;51.486;6.610;2023-07-29T12:06:00;4.23;;;2.70;;
3004;SDS011;1512;51.486;6.610;2023-07-29T12:10:09;2.77;;;2.50;;
3004;SDS011;1512;51.486;6.610;2023-07-29T12:14:18;2.60;;;2.40;;
3004;SDS011;1512;51.486;6.610;2023-07-29T12:18:30;2.63;;;2.43;;
3004;SDS011;1512;51.486;6.610;2023-07-29T12:22:43;2.40;;;2.20;;
3004;SDS011;1512;51.486;6.610;2023-07-29T12:26:52;3.03;;;2.63;;
3004;SDS011;1512;51.486;6.610;2023-07-29T12:31:01;2.90;;;2.60;;
3004;SDS011;1512;51.486;6.610;2023-07-29T12:35:09;3.60;;;2.67;;
3004;SDS011;1512;51.486;6.610;2023-07-29T12:39:23;4.70;;;2.33;;
3004;SDS011;1512;51.486;6.610;2023-07-29T12:43:35;2.50;;;2.30;;
3004;SDS011;1512;51.486;6.610;2023-07-29T12:47:44;4.33;;;2.90;;
3004;SDS011;1512;51.486;6.610;2023-07-29T12:51:53;3.77;;;2.90;;
3004;SDS011;1512;51.486;6.610;2023-07-29T13:00:22;2.47;;;2.27;;
3004;SDS011;1512;51.486;6.610;2023-07-29T13:04:31;4.27;;;2.80;;
3004;SDS011;1512;51.486;6.610;2023-07-29T13:08:40;9.10;;;4.63;;
3004;SDS011;1512;51.486;6.610;2023-07-29T13:12:48;3.37;;;3.07;;
3004;SDS011;1512;51.486;6.610;2023-07-29T13:16:57;4.33;;;3.20;;
3004;SDS011;1512;51.486;6.610;2023-07-29T13:21:05;4.87;;;2.87;;
3004;SDS011;1512;51.486;6.610;2023-07-29T13:25:14;13.40;;;3.97;;
3004;SDS011;1512;51.486;6.610;2023-07-29T13:29:23;11.20;;;3.57;;
3004;SDS011;1512;51.486;6.610;2023-07-29T13:33:31;6.93;;;4.47;;
3004;SDS011;1512;51.486;6.610;2023-07-29T13:37:41;4.50;;;3.57;;
3004;SDS011;1512;51.486;6.610;2023-07-29T13:41:49;4.10;;;3.23;;
3004;SDS011;1512;51.486;6.610;2023-07-29T13:45:58;4.50;;;3.80;;
3004;SDS011;1512;51.486;6.610;2023-07-29T13:50:07;4.07;;;3.70;;
3004;SDS011;1512;51.486;6.610;2023-07-29T13:54:15;3.87;;;3.47;;
3004;SDS011;1512;51.486;6.610;2023-07-29T13:58:24;7.80;;;3.43;;
3004;SDS011;1512;51.486;6.610;2023-07-29T14:02:33;5.77;;;4.20;;
3004;SDS011;1512;51.486;6.610;2023-07-29T14:06:42;16.43;;;5.60;;
3004;SDS011;1512;51.486;6.610;2023-07-29T14:10:54;14.53;;;3.67;;
3004;SDS011;1512;51.486;6.610;2023-07-29T14:15:03;3.90;;;3.07;;
3004;SDS011;1512;51.486;6.610;2023-07-29T14:19:13;3.23;;;2.90;;
3004;SDS011;1512;51.486;6.610;2023-07-29T14:23:21;3.30;;;3.00;;
3004;SDS011;1512;51.486;6.610;2023-07-29T14:27:30;3.13;;;2.60;;
3004;SDS011;1512;51.486;6.610;2023-07-29T14:31:39;2.80;;;2.60;;
3004;SDS011;1512;51.486;6.610;2023-07-29T14:35:47;4.00;;;3.23;;
3004;SDS011;1512;51.486;6.610;2023-07-29T14:39:57;3.67;;;2.90;;
3004;SDS011;1512;51.486;6.610;2023-07-29T14:44:06;3.23;;;2.70;;
3004;SDS011;1512;51.486;6.610;2023-07-29T14:48:14;4.10;;;3.10;;
3004;SDS011;1512;51.486;6.610;2023-07-29T14:52:23;5.27;;;2.90;;
3004;SDS011;1512;51.486;6.610;2023-07-29T14:56:32;4.07;;;2.90;;
3004;SDS011;1512;51.486;6.610;2023-07-29T15:00:41;4.20;;;3.33;;
3004;SDS011;1512;51.486;6.610;2023-07-29T15:04:49;7.00;;;3.60;;
3004;SDS011;1512;51.486;6.610;2023-07-29T15:08:58;4.87;;;3.40;;
3004;SDS011;1512;51.486;6.610;2023-07-29T15:13:07;3.23;;;2.93;;
3004;SDS011;1512;51.486;6.610;2023-07-29T15:17:15;4.40;;;3.90;;
3004;SDS011;1512;51.486;6.610;2023-07-29T15:21:24;4.43;;;3.80;;
3004;SDS011;1512;51.486;6.610;2023-07-29T15:25:33;4.67;;;3.93;;
3004;SDS011;1512;51.486;6.610;2023-07-29T15:29:41;4.63;;;4.17;;
3004;SDS011;1512;51.486;6.610;2023-07-29T15:33:50;4.53;;;2.83;;
3004;SDS011;1512;51.486;6.610;2023-07-29T15:37:58;3.10;;;2.70;;
3004;SDS011;1512;51.486;6.610;2023-07-29T15:42:08;2.47;;;2.03;;
3004;SDS011;1512;51.486;6.610;2023-07-29T15:46:17;3.13;;;2.83;;
3004;SDS011;1512;51.486;6.610;2023-07-29T15:50:25;2.07;;;1.90;;
3004;SDS011;1512;51.486;6.610;2023-07-29T15:54:34;2.80;;;2.60;;
3004;SDS011;1512;51.486;6.610;2023-07-29T15:58:42;2.35;;;2.15;;
3004;SDS011;1512;51.486;6.610;2023-07-29T16:02:51;3.00;;;2.70;;
3004;SDS011;1512;51.486;6.610;2023-07-29T16:07:00;2.53;;;2.33;;
3004;SDS011;1512;51.486;6.610;2023-07-29T16:11:08;2.37;;;2.07;;
3004;SDS011;1512;51.486;6.610;2023-07-29T16:15:17;4.30;;;2.83;;
3004;SDS011;1512;51.486;6.610;2023-07-29T16:19:26;2.90;;;2.60;;
3004;SDS011;1512;51.486;6.610;2023-07-29T16:23:36;3.70;;;2.87;;
3004;SDS011;1512;51.486;6.610;2023-07-29T16:27:44;2.50;;;2.30;;
3004;SDS011;1512;51.486;6.610;2023-07-29T16:31:53;3.23;;;2.93;;
3004;SDS011;1512;51.486;6.610;2023-07-29T16:36:02;4.40;;;2.80;;
3004;SDS011;1512;51.486;6.610;2023-07-29T16:40:11;2.80;;;2.60;;
3004;SDS011;1512;51.486;6.610;2023-07-29T16:44:19;3.97;;;3.20;;
3004;SDS011;1512;51.486;6.610;2023-07-29T16:48:28;2.53;;;2.33;;
3004;SDS011;1512;51.486;6.610;2023-07-29T16:52:37;3.80;;;2.73;;
3004;SDS011;1512;51.486;6.610;2023-07-29T16:56:48;3.63;;;3.33;;
3004;SDS011;1512;51.486;6.610;2023-07-29T17:00:57;3.53;;;2.90;;
3004;SDS011;1512;51.486;6.610;2023-07-29T17:05:06;3.50;;;3.10;;
3004;SDS011;1512;51.486;6.610;2023-07-29T17:09:15;3.50;;;3.20;;
3004;SDS011;1512;51.486;6.610;2023-07-29T17:13:25;3.30;;;3.00;;
3004;SDS011;1512;51.486;6.610;2023-07-29T17:17:34;5.40;;;2.67;;
3004;SDS011;1512;51.486;6.610;2023-07-29T17:21:42;4.33;;;3.30;;
3004;SDS011;1512;51.486;6.610;2023-07-29T17:25:51;4.03;;;3.63;;
3004;SDS011;1512;51.486;6.610;2023-07-29T17:30:00;6.17;;;3.30;;
3004;SDS011;1512;51.486;6.610;2023-07-29T17:34:14;2.50;;;2.30;;
3004;SDS011;1512;51.486;6.610;2023-07-29T17:38:19;2.63;;;2.13;;
3004;SDS011;1512;51.486;6.610;2023-07-29T17:42:27;7.07;;;2.27;;
3004;SDS011;1512;51.486;6.610;2023-07-29T17:46:36;4.53;;;2.47;;
3004;SDS011;1512;51.486;6.610;2023-07-29T17:50:46;4.80;;;2.75;;
3004;SDS011;1512;51.486;6.610;2023-07-29T17:54:55;2.33;;;1.90;;
3004;SDS011;1512;51.486;6.610;2023-07-29T17:59:03;2.80;;;2.60;;
3004;SDS011;1512;51.486;6.610;2023-07-29T18:03:12;3.20;;;2.60;;
3004;SDS011;1512;51.486;6.610;2023-07-29T18:07:21;2.90;;;2.60;;
3004;SDS011;1512;51.486;6.610;2023-07-29T18:11:29;2.93;;;2.50;;
3004;SDS011;1512;51.486;6.610;2023-07-29T18:15:38;2.33;;;2.13;;
3004;SDS011;1512;51.486;6.610;2023-07-29T18:19:47;2.55;;;2.25;;
3004;SDS011;1512;51.486;6.610;2023-07-29T18:23:55;4.60;;;2.40;;
3004;SDS011;1512;51.486;6.610;2023-07-29T18:28:04;2.37;;;2.10;;
3004;SDS011;1512;51.486;6.610;2023-07-29T18:32:14;2.57;;;2.10;;
3004;SDS011;1512;51.486;6.610;2023-07-29T18:36:23;2.27;;;1.82;;
3004;SDS011;1512;51.486;6.610;2023-07-29T18:40:33;2.37;;;2.17;;
3004;SDS011;1512;51.486;6.610;2023-07-29T18:44:41;2.90;;;2.13;;
3004;SDS011;1512;51.486;6.610;2023-07-29T18:48:50;4.70;;;2.33;;
3004;SDS011;1512;51.486;6.610;2023-07-29T18:52:59;2.87;;;2.50;;
3004;SDS011;1512;51.486;6.610;2023-07-29T18:57:07;3.30;;;2.43;;
3004;SDS011;1512;51.486;6.610;2023-07-29T19:01:17;2.40;;;2.20;;
3004;SDS011;1512;51.486;6.610;2023-07-29T19:05:27;8.13;;;2.53;;
3004;SDS011;1512;51.486;6.610;2023-07-29T19:09:36;4.93;;;2.83;;
3004;SDS011;1512;51.486;6.610;2023-07-29T19:13:44;2.87;;;2.60;;
3004;SDS011;1512;51.486;6.610;2023-07-29T19:17:53;3.60;;;2.43;;
3004;SDS011;1512;51.486;6.610;2023-07-29T19:22:02;2.63;;;2.40;;
3004;SDS011;1512;51.486;6.610;2023-07-29T19:26:10;3.83;;;3.43;;
3004;SDS011;1512;51.486;6.610;2023-07-29T19:30:19;4.40;;;2.50;;
3004;SDS011;1512;51.486;6.610;2023-07-29T19:34:28;3.37;;;2.97;;
3004;SDS011;1512;51.486;6.610;2023-07-29T19:38:37;3.37;;;3.07;;
3004;SDS011;1512;51.486;6.610;2023-07-29T19:42:46;3.43;;;3.13;;
3004;SDS011;1512;51.486;6.610;2023-07-29T19:46:56;3.60;;;2.93;;
3004;SDS011;1512;51.486;6.610;2023-07-29T19:51:05;3.93;;;3.53;;
3004;SDS011;1512;51.486;6.610;2023-07-29T19:55:14;3.57;;;2.83;;
3004;SDS011;1512;51.486;6.610;2023-07-29T19:59:22;3.27;;;2.97;;
3004;SDS011;1512;51.486;6.610;2023-07-29T20:03:32;4.37;;;3.47;;
3004;SDS011;1512;51.486;6.610;2023-07-29T20:07:41;5.23;;;3.43;;
3004;SDS011;1512;51.486;6.610;2023-07-29T20:11:50;3.67;;;3.17;;
3004;SDS011;1512;51.486;6.610;2023-07-29T20:15:59;3.30;;;3.00;;
3004;SDS011;1512;51.486;6.610;2023-07-29T20:20:08;3.20;;;2.90;;
3004;SDS011;1512;51.486;6.610;2023-07-29T20:24:17;4.53;;;3.20;;
3004;SDS011;1512;51.486;6.610;2023-07-29T20:28:26;3.63;;;3.33;;
3004;SDS011;1512;51.486;6.610;2023-07-29T20:32:34;3.90;;;3.20;;
3004;SDS011;1512;51.486;6.610;2023-07-29T20:36:43;4.40;;;3.27;;
3004;SDS011;1512;51.486;6.610;2023-07-29T20:40:52;4.47;;;2.90;;
3004;SDS011;1512;51.486;6.610;2023-07-29T20:45:02;3.63;;;3.20;;
3004;SDS011;1512;51.486;6.610;2023-07-29T20:49:12;8.00;;;4.10;;
3004;SDS011;1512;51.486;6.610;2023-07-29T20:53:20;4.40;;;3.70;;
3004;SDS011;1512;51.486;6.610;2023-07-29T20:57:29;4.63;;;4.10;;
3004;SDS011;1512;51.486;6.610;2023-07-29T21:01:37;4.13;;;3.37;;
3004;SDS011;1512;51.486;6.610;2023-07-29T21:05:47;3.90;;;3.50;;
3004;SDS011;1512;51.486;6.610;2023-07-29T21:09:56;5.47;;;3.40;;
3004;SDS011;1512;51.486;6.610;2023-07-29T21:14:05;4.30;;;3.90;;
3004;SDS011;1512;51.486;6.610;2023-07-29T21:18:14;3.70;;;3.40;;
3004;SDS011;1512;51.486;6.610;2023-07-29T21:22:22;4.30;;;3.90;;
3004;SDS011;1512;51.486;6.610;2023-07-29T21:26:31;5.27;;;3.70;;
3004;SDS011;1512;51.486;6.610;2023-07-29T21:30:41;4.70;;;3.83;;
3004;SDS011;1512;51.486;6.610;2023-07-29T21:34:49;4.13;;;3.70;;
3004;SDS011;1512;51.486;6.610;2023-07-29T21:39:00;4.00;;;3.60;;
3004;SDS011;1512;51.486;6.610;2023-07-29T21:43:08;7.50;;;3.87;;
3004;SDS011;1512;51.486;6.610;2023-07-29T21:47:17;3.83;;;3.50;;
3004;SDS011;1512;51.486;6.610;2023-07-29T21:51:26;3.80;;;3.33;;
3004;SDS011;1512;51.486;6.610;2023-07-29T21:55:34;9.10;;;3.90;;
3004;SDS011;1512;51.486;6.610;2023-07-29T21:59:44;4.70;;;3.43;;
3004;SDS011;1512;51.486;6.610;2023-07-29T22:03:53;3.80;;;3.50;;
3004;SDS011;1512;51.486;6.610;2023-07-29T22:08:02;5.00;;;3.90;;
3004;SDS011;1512;51.486;6.610;2023-07-29T22:12:11;9.13;;;3.30;;
3004;SDS011;1512;51.486;6.610;2023-07-29T22:16:19;4.67;;;3.50;;
3004;SDS011;1512;51.486;6.610;2023-07-29T22:24:49;5.80;;;2.90;;
3004;SDS011;1512;51.486;6.610;2023-07-29T22:28:59;8.23;;;4.00;;
3004;SDS011;1512;51.486;6.610;2023-07-29T22:33:07;3.40;;;3.10;;
3004;SDS011;1512;51.486;6.610;2023-07-29T22:37:16;6.23;;;3.77;;
3004;SDS011;1512;51.486;6.610;2023-07-29T22:41:25;5.70;;;3.47;;
3004;SDS011;1512;51.486;6.610;2023-07-29T22:45:34;3.93;;;3.63;;
3004;SDS011;1512;51.486;6.610;2023-07-29T22:49:42;5.10;;;3.57;;
3004;SDS011;1512;51.486;6.610;2023-07-29T22:53:52;4.93;;;3.50;;
3004;SDS011;1512;51.486;6.610;2023-07-29T22:58:00;6.33;;;3.70;;
3004;SDS011;1512;51.486;6.610;2023-07-29T23:02:10;8.80;;;4.30;;
3004;SDS011;1512;51.486;6.610;2023-07-29T23:06:18;4.67;;;3.00;;
3004;SDS011;1512;51.486;6.610;2023-07-29T23:10:27;6.70;;;3.50;;
3004;SDS011;1512;51.486;6.610;2023-07-29T23:14:36;4.83;;;3.50;;
3004;SDS011;1512;51.486;6.610;2023-07-29T23:18:44;5.50;;;3.50;;
3004;SDS011;1512;51.486;6.610;2023-07-29T23:22:53;4.23;;;2.90;;
3004;SDS011;1512;51.486;6.610;2023-07-29T23:27:01;4.30;;;2.90;;
3004;SDS011;1512;51.486;6.610;2023-07-29T23:31:10;6.23;;;3.40;;
3004;SDS011;1512;51.486;6.610;2023-07-29T23:35:19;4.90;;;3.70;;
3004;SDS011;1512;51.486;6.610;2023-07-29T23:43:56;3.93;;;3.40;;
3004;SDS011;1512;51.486;6.610;2023-07-29T23:48:04;5.07;;;3.43;;
3004;SDS011;1512;51.486;6.610;2023-07-29T23:52:13;3.73;;;3.40;;
3004;SDS011;1512;51.486;6.610;2023-07-29T23:56:21;4.13;;;3.73;;
